Latest Coastal Weather Observations for Yeppoon

IDQ60701

Issued at 3:51 pm EST Saturday 25 March 2017 (issued every 10 minutes, with the page automatically refreshed every 10 minutes)

About coastal observations | Map of coastal stations | Coastal observations for QLD | Marine services | Other Formats
Station Details ID: 033294 Name: YEPPOON THE ESPLANADE Lat: -23.14 Lon: 150.75 Height: 5.5 m
Data from the previous 72 hours. | See also: Recent months at Yeppoon
Date/Time
EST
Temp
°C
Wind Pressure Rain since
9am
mm
Weather Cloud Vis
km
Sea
Height
m
Swell
Dir  Spd
kts
Gust
kts
hPa Trend Height
m
Period
s
Dir
25/03:30pm 28.7 ESE 13 19 1010.6 - 0.0 - - - - - - -
25/03:00pm 28.9 ESE 13 20 1010.8 - 0.0 - - - - - - -
25/02:30pm 29.1 ESE 13 20 1010.9 - 0.0 - - - - - - -
25/02:00pm 29.1 ESE 13 19 1011.0 - 0.0 - - - - - - -
25/01:30pm 29.0 ESE 14 21 1011.4 - 0.0 - - - - - - -
25/01:00pm 29.0 ESE 13 20 1011.8 - 0.0 - - - - - - -
25/12:30pm 29.2 ESE 12 18 1012.2 - 0.0 - - - - - - -
25/12:00pm 29.2 ESE 12 18 1012.5 - 0.0 - - - - - - -
25/11:30am 28.7 SE 13 22 1012.9 - 0.0 - - - - - - -
25/11:00am 28.6 SE 12 19 1013.3 - 0.0 - - - - - - -
25/10:30am 28.4 SE 12 17 1013.2 - 0.0 - - - - - - -
25/10:00am 28.1 SE 12 18 1013.2 - 0.0 - - - - - - -
25/09:30am 27.2 SSE 12 19 1013.2 - 0.0 - - - - - - -
25/09:00am 27.6 SE 11 17 1013.0 - 0.0 - - - - - - -
25/08:30am 28.2 ESE 13 22 1012.9 - 0.0 - - - - - - -
25/08:00am 27.7 ESE 15 21 1012.6 - 0.0 - - - - - - -
25/07:30am 27.3 ESE 13 18 1012.2 - 0.0 - - - - - - -
25/07:00am 27.1 ESE 12 19 1011.8 - 0.0 - - - - - - -
25/06:30am 26.8 ESE 14 22 1011.6 - 0.0 - - - - - - -
25/06:00am 26.7 ESE 13 21 1011.4 - 0.0 - - - - - - -
25/05:30am 26.8 ESE 16 21 1011.1 - 0.0 - - - - - - -
25/05:00am 26.7 ESE 12 17 1010.9 - 0.0 - - - - - - -
25/04:30am 26.8 ESE 13 21 1010.8 - 0.0 - - - - - - -
25/04:00am 26.8 ESE 12 18 1010.9 - 0.0 - - - - - - -
25/03:30am 26.8 ESE 12 19 1010.8 - 0.0 - - - - - - -
25/03:00am 27.0 ESE 13 19 1010.7 - 0.0 - - - - - - -
25/02:30am 26.9 ESE 12 19 1010.8 - 0.0 - - - - - - -
25/02:00am 26.9 ESE 13 18 1011.4 - 0.0 - - - - - - -
25/01:30am 27.0 ESE 13 21 1011.6 - 0.0 - - - - - - -
25/01:00am 27.1 ESE 12 19 1011.7 - 0.0 - - - - - - -
25/12:30am 27.2 ESE 12 17 1012.1 - 0.0 - - - - - - -
25/12:00am 27.3 ESE 13 19 1012.3 - 0.0 - - - - - - -
 
Date/Time
EST
Temp
°C
Wind Pressure Rain since
9am
mm
Weather Cloud Vis
km
Sea
Height
m
Swell
Dir  Spd
kts
Gust
kts
hPa Trend Height
m
Period
s
Dir
24/11:30pm 27.4 E 14 18 1012.4 - 0.0 - - - - - - -
24/11:00pm 27.4 ESE 14 17 1012.6 - 0.0 - - - - - - -
24/10:30pm 27.4 ESE 12 17 1012.7 - 0.0 - - - - - - -
24/10:00pm 27.5 E 12 17 1012.8 - 0.0 - - - - - - -
24/09:30pm 27.4 ESE 12 15 1012.7 - 0.0 - - - - - - -
24/09:00pm 27.3 ESE 11 14 1012.8 - 0.0 - - - - - - -
24/08:30pm 27.5 E 13 16 1012.6 - 0.0 - - - - - - -
24/08:00pm 27.4 E 12 15 1012.3 - 0.0 - - - - - - -
24/07:30pm 27.5 ESE 12 14 1012.1 - 0.0 - - - - - - -
24/07:00pm 27.6 ESE 10 14 1012.0 - 0.0 - - - - - - -
24/06:30pm 27.6 ESE 11 14 1011.7 - 0.0 - - - - - - -
24/06:00pm 27.8 ESE 12 15 1011.6 - 0.0 - - - - - - -
24/05:30pm 27.9 ESE 12 14 1011.3 - 0.0 - - - - - - -
24/05:00pm 28.2 ESE 11 15 1011.1 - 0.0 - - - - - - -
24/04:30pm 28.7 E 11 16 1010.8 - 0.0 - - - - - - -
24/04:00pm 28.5 ESE 11 15 1010.7 - 0.0 - - - - - - -
24/03:30pm 28.8 ESE 11 14 1010.7 - 0.0 - - - - - - -
24/03:00pm 29.2 ESE 11 14 1010.8 - 0.0 - - - - - - -
24/02:30pm 29.4 ESE 11 15 1011.1 - 0.0 - - - - - - -
24/02:00pm 29.1 ESE 11 15 1011.3 - 0.0 - - - - - - -
24/01:30pm 28.9 ESE 10 13 1011.7 - 0.0 - - - - - - -
24/01:00pm 29.2 E 11 14 1012.0 - 0.0 - - - - - - -
24/12:30pm 29.1 ESE 9 13 1012.5 - 0.0 - - - - - - -
24/12:00pm 29.0 ESE 10 13 1012.9 - 0.0 - - - - - - -
24/11:30am 28.6 ESE 9 12 1013.2 - 0.0 - - - - - - -
24/11:00am 29.1 SE 9 13 1013.8 - 0.0 - - - - - - -
24/10:30am 28.6 E 10 13 1014.1 - 0.0 - - - - - - -
24/10:00am 27.9 ESE 8 11 1014.3 - 0.0 - - - - - - -
24/09:30am 27.4 SE 9 12 1014.1 - 0.0 - - - - - - -
24/09:00am 27.2 SE 10 14 1014.0 - 15.4 - - - - - - -
24/08:30am 26.5 SSE 8 12 1013.8 - 15.4 - - - - - - -
24/08:00am 25.8 SSE 7 11 1013.6 - 15.4 - - - - - - -
24/07:30am 24.8 S 5 7 1013.3 - 15.4 - - - - - - -
24/07:00am 24.3 S 5 8 1012.9 - 15.4 - - - - - - -
24/06:30am 24.1 S 4 6 1012.6 - 15.4 - - - - - - -
24/06:00am 24.0 S 5 6 1012.4 - 15.4 - - - - - - -
24/05:30am 24.1 S 5 6 1012.2 - 15.4 - - - - - - -
24/05:00am 24.1 S 5 7 1012.0 - 15.4 - - - - - - -
24/04:30am 24.4 S 5 6 1011.8 - 15.4 - - - - - - -
24/04:00am 24.2 S 6 9 1011.7 - 15.4 - - - - - - -
24/03:30am 24.1 S 7 11 1011.7 - 15.4 - - - - - - -
24/03:00am 23.9 SSE 6 9 1011.9 - 15.4 - - - - - - -
24/02:30am 23.5 SE 4 6 1011.9 - 15.4 - - - - - - -
24/02:00am 23.3 SE 5 7 1012.3 - 15.4 - - - - - - -
24/01:30am 23.3 SE 5 8 1012.5 - 15.4 - - - - - - -
24/01:00am 23.2 SE 5 6 1012.7 - 15.4 - - - - - - -
24/12:30am 23.2 SE 4 5 1013.0 - 15.4 - - - - - - -
24/12:00am 23.2 SE 5 7 1013.4 - 15.4 - - - - - - -
 
Date/Time
EST
Temp
°C
Wind Pressure Rain since
9am
mm
Weather Cloud Vis
km
Sea
Height
m
Swell
Dir  Spd
kts
Gust
kts
hPa Trend Height
m
Period
s
Dir
23/11:30pm 23.6 ESE 3 5 1013.7 - 15.4 - - - - - - -
23/11:00pm 24.1 ESE 6 10 1014.0 - 15.4 - - - - - - -
23/10:30pm 24.4 ESE 11 16 1014.3 - 15.2 - - - - - - -
23/10:00pm 24.5 ESE 9 15 1014.4 - 15.2 - - - - - - -
23/09:30pm 25.3 E 12 15 1014.5 - 15.2 - - - - - - -
23/09:00pm 25.4 ESE 10 13 1014.3 - 15.2 Recent precip. - - - - - -
23/08:30pm 25.0 ESE 8 13 1014.0 - 15.2 - - - - - - -
23/08:00pm 25.1 ESE 9 13 1013.9 - 14.0 - - - - - - -
23/07:30pm 25.6 ESE 9 13 1013.7 - 12.4 - - - - - - -
23/07:00pm 26.3 NE 6 8 1013.3 - 12.4 - - - - - - -
23/06:30pm 26.2 NE 11 12 1013.1 - 12.4 - - - - - - -
23/06:00pm 25.6 NNE 7 8 1012.6 - 12.4 - - - - - - -
23/05:30pm 25.8 NNE 9 11 1012.7 - 12.4 - - - - - - -
23/05:00pm 25.4 NNE 12 15 1012.3 - 12.4 - - - - - - -
23/04:30pm 25.8 NE 12 15 1012.1 - 12.4 - - - - - - -
23/04:00pm 25.6 NE 12 15 1012.0 - 12.4 - - - - - - -
23/03:30pm 25.7 NE 13 16 1012.0 - 12.0 - - - - - - -
23/03:00pm 25.6 NE 18 23 1011.7 - 12.0 - - - - - - -
23/02:30pm 25.4 NE 14 17 1012.0 - 12.0 - - - - - - -
23/02:00pm 25.0 NE 15 19 1012.1 - 12.0 - - - - - - -
23/01:30pm 25.0 ENE 15 18 1012.6 - 12.0 - - - - - - -
23/01:00pm 25.0 ENE 14 17 1012.9 - 12.0 - - - - - - -
23/12:30pm 24.8 ENE 15 19 1013.2 - 11.8 - - - - - - -
23/12:00pm 24.4 E 13 17 1013.7 - 11.6 Recent precip. - - - - - -
23/11:30am 23.9 ENE 12 14 1014.0 - 11.6 - - - - - - -
23/11:00am 24.5 E 13 16 1014.1 - 11.0 - - - - - - -
23/10:30am 24.4 E 14 16 1014.4 - 9.2 - - - - - - -
23/10:00am 24.5 E 13 16 1014.4 - 8.8 - - - - - - -
23/09:30am 24.4 E 16 19 1014.4 - 2.6 - - - - - - -
23/09:00am 24.7 ESE 10 15 1014.0 - 48.6 Recent precip. - - - - - -
23/08:30am 24.8 W 2 5 1013.8 - 48.6 - - - - - - -
23/08:00am 24.6 W 1 3 1013.5 - 47.4 - - - - - - -
23/07:30am 24.5 S 5 11 1013.1 - 44.8 - - - - - - -
23/07:00am 24.2 SSW 5 8 1012.7 - 44.4 - - - - - - -
23/06:30am 24.1 S 6 9 1012.5 - 44.4 - - - - - - -
23/06:00am 23.9 S 7 10 1012.0 - 44.4 Recent precip. - - - - - -
23/05:30am 24.0 SSE 3 7 1011.7 - 44.4 - - - - - - -
23/05:00am 23.9 ENE 4 6 1011.3 - 44.0 - - - - - - -
23/04:30am 24.0 ENE 3 5 1011.2 - 44.0 - - - - - - -
23/04:00am 24.0 ENE 5 7 1011.1 - 44.0 - - - - - - -
23/03:30am 24.8 ENE 7 11 1011.2 - 44.0 - - - - - - -
23/03:00am 23.6 SSE 6 8 1011.4 - 43.6 Rain - - - - - -
23/02:30am 23.3 SSE 6 8 1011.3 - 43.4 - - - - - - -
23/02:00am 23.7 SSE 4 6 1011.6 - 43.4 - - - - - - -
23/01:30am 23.9 SSE 4 6 1011.7 - 43.4 - - - - - - -
23/01:00am 24.1 SSE 6 8 1012.2 - 43.0 - - - - - - -
23/12:30am 25.0 E 8 12 1012.4 - 43.0 - - - - - - -
23/12:00am 24.5 SSE 5 7 1012.6 - 43.0 Recent precip. - - - - - -
 
Date/Time
EST
Temp
°C
Wind Pressure Rain since
9am
mm
Weather Cloud Vis
km
Sea
Height
m
Swell
Dir  Spd
kts
Gust
kts
hPa Trend Height
m
Period
s
Dir
22/11:30pm 24.8 ESE 3 5 1012.9 - 43.0 - - - - - - -
22/11:00pm 24.9 SE 4 6 1012.9 - 42.0 - - - - - - -
22/10:30pm 24.6 SSE 6 9 1013.0 - 39.0 - - - - - - -
22/10:00pm 25.7 SE 7 10 1013.1 - 39.0 - - - - - - -
22/09:30pm 25.8 ESE 10 13 1013.2 - 39.0 - - - - - - -
22/09:00pm 26.1 E 14 17 1013.1 - 39.0 - - - - - - -
22/08:30pm 25.8 E 9 14 1012.4 - 39.0 - - - - - - -
22/08:00pm 25.1 ESE 9 13 1012.4 - 39.0 - - - - - - -
22/07:30pm 24.5 ESE 8 13 1012.3 - 39.0 - - - - - - -
22/07:00pm 24.7 ESE 10 13 1012.1 - 38.8 - - - - - - -
22/06:30pm 24.1 E 12 14 1011.8 - 38.4 - - - - - - -
22/06:00pm 24.1 ENE 15 18 1011.7 - 33.8 Rain - - - - - -
22/05:30pm 24.4 ENE 11 15 1011.3 - 23.6 - - - - - - -
22/05:00pm 25.6 ENE 12 15 1010.9 - 12.6 - - - - - - -
22/04:30pm 26.5 ENE 12 15 1010.9 - 12.4 - - - - - - -
22/04:00pm 26.2 NE 15 19 1010.7 - 12.4 - - - - - - -

Other Formats:

Comma delimited format used in spreadsheet applications
http://www.bom.gov.au/fwo/IDQ60701/IDQ60701.94373.axf

JavaScript Object Notation format (JSON) in row-major order
http://www.bom.gov.au/fwo/IDQ60701/IDQ60701.94373.json